sensor_id;sensor_type;location;lat;lon;timestamp;temperature;humidity
65046;DHT22;54657;52.022;5.534;2022-09-13T00:00:43;20.20;67.40
65046;DHT22;54657;52.022;5.534;2022-09-13T00:03:10;20.20;67.40
65046;DHT22;54657;52.022;5.534;2022-09-13T00:05:37;20.20;67.40
65046;DHT22;54657;52.022;5.534;2022-09-13T00:08:03;20.20;67.50
65046;DHT22;54657;52.022;5.534;2022-09-13T00:10:29;20.10;67.50
65046;DHT22;54657;52.022;5.534;2022-09-13T00:12:55;20.10;67.50
65046;DHT22;54657;52.022;5.534;2022-09-13T00:15:20;20.10;67.50
65046;DHT22;54657;52.022;5.534;2022-09-13T00:17:46;20.10;67.40
65046;DHT22;54657;52.022;5.534;2022-09-13T00:20:12;20.10;67.40
65046;DHT22;54657;52.022;5.534;2022-09-13T00:22:38;20.10;67.50
65046;DHT22;54657;52.022;5.534;2022-09-13T00:25:04;20.10;67.50
65046;DHT22;54657;52.022;5.534;2022-09-13T00:27:32;20.10;67.50
65046;DHT22;54657;52.022;5.534;2022-09-13T00:29:58;20.10;67.60
65046;DHT22;54657;52.022;5.534;2022-09-13T00:32:24;20.10;67.70
65046;DHT22;54657;52.022;5.534;2022-09-13T00:34:51;20.20;67.70
65046;DHT22;54657;52.022;5.534;2022-09-13T00:37:16;20.20;67.80
65046;DHT22;54657;52.022;5.534;2022-09-13T00:39:42;20.20;67.70
65046;DHT22;54657;52.022;5.534;2022-09-13T00:42:16;20.20;67.70
65046;DHT22;54657;52.022;5.534;2022-09-13T00:47:38;20.10;67.90
65046;DHT22;54657;52.022;5.534;2022-09-13T00:50:30;20.20;68.10
65046;DHT22;54657;52.022;5.534;2022-09-13T00:55:47;20.00;68.20
65046;DHT22;54657;52.022;5.534;2022-09-13T00:58:24;20.00;68.40
65046;DHT22;54657;52.022;5.534;2022-09-13T01:00:52;20.00;68.40
65046;DHT22;54657;52.022;5.534;2022-09-13T01:03:21;20.00;68.30
65046;DHT22;54657;52.022;5.534;2022-09-13T01:05:53;20.10;68.30
65046;DHT22;54657;52.022;5.534;2022-09-13T01:08:22;20.00;68.10
65046;DHT22;54657;52.022;5.534;2022-09-13T01:10:52;20.00;68.30
65046;DHT22;54657;52.022;5.534;2022-09-13T01:13:32;20.00;68.40
65046;DHT22;54657;52.022;5.534;2022-09-13T01:15:59;19.90;68.70
65046;DHT22;54657;52.022;5.534;2022-09-13T01:18:25;19.90;68.60
65046;DHT22;54657;52.022;5.534;2022-09-13T01:21:03;19.90;68.50
65046;DHT22;54657;52.022;5.534;2022-09-13T01:41:03;19.90;69.20
65046;DHT22;54657;52.022;5.534;2022-09-13T01:46:25;19.60;69.60
65046;DHT22;54657;52.022;5.534;2022-09-13T01:49:05;19.70;69.50
65046;DHT22;54657;52.022;5.534;2022-09-13T01:51:42;19.70;69.30
65046;DHT22;54657;52.022;5.534;2022-09-13T01:54:18;19.70;69.40
65046;DHT22;54657;52.022;5.534;2022-09-13T01:57:02;19.80;69.40
65046;DHT22;54657;52.022;5.534;2022-09-13T01:59:52;19.80;69.30
65046;DHT22;54657;52.022;5.534;2022-09-13T02:02:29;19.70;69.50
65046;DHT22;54657;52.022;5.534;2022-09-13T02:05:11;19.80;69.30
65046;DHT22;54657;52.022;5.534;2022-09-13T02:07:45;19.80;69.10
65046;DHT22;54657;52.022;5.534;2022-09-13T02:10:24;19.90;68.90
65046;DHT22;54657;52.022;5.534;2022-09-13T02:12:51;19.90;68.80
65046;DHT22;54657;52.022;5.534;2022-09-13T02:15:24;19.90;68.80
65046;DHT22;54657;52.022;5.534;2022-09-13T02:18:41;20.00;68.90
65046;DHT22;54657;52.022;5.534;2022-09-13T02:20:49;20.00;68.90
65046;DHT22;54657;52.022;5.534;2022-09-13T02:23:31;20.00;68.70
65046;DHT22;54657;52.022;5.534;2022-09-13T02:25:59;19.90;69.00
65046;DHT22;54657;52.022;5.534;2022-09-13T02:28:32;19.80;69.10
65046;DHT22;54657;52.022;5.534;2022-09-13T02:31:00;19.70;69.30
65046;DHT22;54657;52.022;5.534;2022-09-13T02:33:47;19.70;69.20
65046;DHT22;54657;52.022;5.534;2022-09-13T02:36:21;19.70;69.40
65046;DHT22;54657;52.022;5.534;2022-09-13T02:38:59;19.70;69.10
65046;DHT22;54657;52.022;5.534;2022-09-13T02:41:51;19.70;69.30
65046;DHT22;54657;52.022;5.534;2022-09-13T02:44:30;19.70;69.50
65046;DHT22;54657;52.022;5.534;2022-09-13T02:47:30;19.80;69.20
65046;DHT22;54657;52.022;5.534;2022-09-13T02:50:22;19.80;69.30
65046;DHT22;54657;52.022;5.534;2022-09-13T02:58:56;19.90;69.30
65046;DHT22;54657;52.022;5.534;2022-09-13T03:01:23;19.90;69.30
65046;DHT22;54657;52.022;5.534;2022-09-13T03:03:51;19.80;69.00
65046;DHT22;54657;52.022;5.534;2022-09-13T03:06:26;19.80;69.30
65046;DHT22;54657;52.022;5.534;2022-09-13T03:08:59;19.80;69.40
65046;DHT22;54657;52.022;5.534;2022-09-13T03:12:27;19.80;69.30
65046;DHT22;54657;52.022;5.534;2022-09-13T03:22:33;19.80;69.40
65046;DHT22;54657;52.022;5.534;2022-09-13T03:25:26;19.70;69.70
65046;DHT22;54657;52.022;5.534;2022-09-13T03:28:34;19.70;70.40
65046;DHT22;54657;52.022;5.534;2022-09-13T03:31:13;19.60;70.50
65046;DHT22;54657;52.022;5.534;2022-09-13T03:33:55;19.60;70.50
65046;DHT22;54657;52.022;5.534;2022-09-13T03:36:41;19.60;70.40
65046;DHT22;54657;52.022;5.534;2022-09-13T03:39:11;19.70;70.50
65046;DHT22;54657;52.022;5.534;2022-09-13T03:41:42;19.60;70.10
65046;DHT22;54657;52.022;5.534;2022-09-13T03:44:11;19.70;70.20
65046;DHT22;54657;52.022;5.534;2022-09-13T03:46:48;19.70;70.10
65046;DHT22;54657;52.022;5.534;2022-09-13T03:49:16;19.70;70.20
65046;DHT22;54657;52.022;5.534;2022-09-13T03:51:47;19.70;70.00
65046;DHT22;54657;52.022;5.534;2022-09-13T03:54:28;19.70;70.00
65046;DHT22;54657;52.022;5.534;2022-09-13T03:57:13;19.70;70.10
65046;DHT22;54657;52.022;5.534;2022-09-13T03:59:54;19.70;70.40
65046;DHT22;54657;52.022;5.534;2022-09-13T04:02:21;19.70;70.50
65046;DHT22;54657;52.022;5.534;2022-09-13T04:04:48;19.70;70.40
65046;DHT22;54657;52.022;5.534;2022-09-13T04:07:19;19.70;70.40
65046;DHT22;54657;52.022;5.534;2022-09-13T04:09:44;19.70;70.40
65046;DHT22;54657;52.022;5.534;2022-09-13T04:14:45;19.70;70.50
65046;DHT22;54657;52.022;5.534;2022-09-13T04:17:12;19.70;70.50
65046;DHT22;54657;52.022;5.534;2022-09-13T04:19:38;19.70;70.50
65046;DHT22;54657;52.022;5.534;2022-09-13T04:22:04;19.70;70.60
65046;DHT22;54657;52.022;5.534;2022-09-13T04:24:30;19.70;70.60
65046;DHT22;54657;52.022;5.534;2022-09-13T04:26:56;19.70;70.50
65046;DHT22;54657;52.022;5.534;2022-09-13T04:29:24;19.60;70.50
65046;DHT22;54657;52.022;5.534;2022-09-13T04:31:51;19.60;70.60
65046;DHT22;54657;52.022;5.534;2022-09-13T04:34:17;19.60;70.70
65046;DHT22;54657;52.022;5.534;2022-09-13T04:36:43;19.60;70.80
65046;DHT22;54657;52.022;5.534;2022-09-13T04:39:09;19.50;70.80
65046;DHT22;54657;52.022;5.534;2022-09-13T04:41:35;19.60;70.80
65046;DHT22;54657;52.022;5.534;2022-09-13T04:44:01;19.60;70.80
65046;DHT22;54657;52.022;5.534;2022-09-13T04:46:27;19.60;70.80
65046;DHT22;54657;52.022;5.534;2022-09-13T04:48:52;19.60;70.80
65046;DHT22;54657;52.022;5.534;2022-09-13T04:51:18;19.50;71.10
65046;DHT22;54657;52.022;5.534;2022-09-13T04:53:50;19.40;71.30
65046;DHT22;54657;52.022;5.534;2022-09-13T04:56:15;19.40;71.40
65046;DHT22;54657;52.022;5.534;2022-09-13T04:58:42;19.40;71.40
65046;DHT22;54657;52.022;5.534;2022-09-13T05:01:08;19.40;71.40
65046;DHT22;54657;52.022;5.534;2022-09-13T05:03:35;19.40;71.40
65046;DHT22;54657;52.022;5.534;2022-09-13T05:06:05;19.50;71.50
65046;DHT22;54657;52.022;5.534;2022-09-13T05:08:31;19.50;71.60
65046;DHT22;54657;52.022;5.534;2022-09-13T05:10:57;19.50;71.50
65046;DHT22;54657;52.022;5.534;2022-09-13T05:13:23;19.50;71.40
65046;DHT22;54657;52.022;5.534;2022-09-13T05:15:49;19.50;71.40
65046;DHT22;54657;52.022;5.534;2022-09-13T05:18:15;19.60;71.30
65046;DHT22;54657;52.022;5.534;2022-09-13T05:20:40;19.60;71.30
65046;DHT22;54657;52.022;5.534;2022-09-13T05:23:06;19.60;71.40
65046;DHT22;54657;52.022;5.534;2022-09-13T05:25:32;19.60;71.30
65046;DHT22;54657;52.022;5.534;2022-09-13T05:27:57;19.60;71.30
65046;DHT22;54657;52.022;5.534;2022-09-13T05:30:23;19.60;71.20
65046;DHT22;54657;52.022;5.534;2022-09-13T05:32:48;19.60;71.30
65046;DHT22;54657;52.022;5.534;2022-09-13T05:35:14;19.60;71.30
65046;DHT22;54657;52.022;5.534;2022-09-13T05:37:39;19.60;71.30
65046;DHT22;54657;52.022;5.534;2022-09-13T05:40:05;19.60;71.50
65046;DHT22;54657;52.022;5.534;2022-09-13T05:42:31;19.70;71.50
65046;DHT22;54657;52.022;5.534;2022-09-13T05:44:57;19.60;71.50
65046;DHT22;54657;52.022;5.534;2022-09-13T05:47:22;19.70;71.60
65046;DHT22;54657;52.022;5.534;2022-09-13T05:49:48;19.60;71.60
65046;DHT22;54657;52.022;5.534;2022-09-13T05:52:13;19.60;71.60
65046;DHT22;54657;52.022;5.534;2022-09-13T05:54:39;19.70;71.70
65046;DHT22;54657;52.022;5.534;2022-09-13T05:57:05;19.60;71.70
65046;DHT22;54657;52.022;5.534;2022-09-13T05:59:30;19.70;71.70
65046;DHT22;54657;52.022;5.534;2022-09-13T06:01:56;19.70;71.60
65046;DHT22;54657;52.022;5.534;2022-09-13T06:04:22;19.70;71.60
65046;DHT22;54657;52.022;5.534;2022-09-13T06:06:48;19.80;71.50
65046;DHT22;54657;52.022;5.534;2022-09-13T06:09:13;19.70;71.50
65046;DHT22;54657;52.022;5.534;2022-09-13T06:11:39;19.80;71.60
65046;DHT22;54657;52.022;5.534;2022-09-13T06:14:04;19.80;71.70
65046;DHT22;54657;52.022;5.534;2022-09-13T06:16:30;19.80;71.60
65046;DHT22;54657;52.022;5.534;2022-09-13T06:18:57;19.90;71.60
65046;DHT22;54657;52.022;5.534;2022-09-13T06:21:23;19.90;71.60
65046;DHT22;54657;52.022;5.534;2022-09-13T06:23:51;20.00;71.60
65046;DHT22;54657;52.022;5.534;2022-09-13T06:26:19;19.90;71.60
65046;DHT22;54657;52.022;5.534;2022-09-13T06:28:47;19.90;71.60
65046;DHT22;54657;52.022;5.534;2022-09-13T06:31:14;20.00;71.70
65046;DHT22;54657;52.022;5.534;2022-09-13T06:33:41;20.00;71.60
65046;DHT22;54657;52.022;5.534;2022-09-13T06:36:09;20.10;71.60
65046;DHT22;54657;52.022;5.534;2022-09-13T06:38:35;20.10;71.50
65046;DHT22;54657;52.022;5.534;2022-09-13T06:41:12;20.20;71.50
65046;DHT22;54657;52.022;5.534;2022-09-13T06:43:39;20.20;71.80
65046;DHT22;54657;52.022;5.534;2022-09-13T06:46:06;20.20;71.50
65046;DHT22;54657;52.022;5.534;2022-09-13T06:48:33;20.30;71.50
65046;DHT22;54657;52.022;5.534;2022-09-13T06:51:00;20.30;71.50
65046;DHT22;54657;52.022;5.534;2022-09-13T06:53:26;20.30;71.50
65046;DHT22;54657;52.022;5.534;2022-09-13T06:56:01;20.40;71.60
65046;DHT22;54657;52.022;5.534;2022-09-13T06:58:28;20.30;71.80
65046;DHT22;54657;52.022;5.534;2022-09-13T07:01:03;20.30;71.80
65046;DHT22;54657;52.022;5.534;2022-09-13T07:03:29;20.30;71.70
65046;DHT22;54657;52.022;5.534;2022-09-13T07:05:54;20.40;71.80
65046;DHT22;54657;52.022;5.534;2022-09-13T07:08:20;20.40;71.80
65046;DHT22;54657;52.022;5.534;2022-09-13T07:10:45;20.50;71.80
65046;DHT22;54657;52.022;5.534;2022-09-13T07:13:11;20.50;71.80
65046;DHT22;54657;52.022;5.534;2022-09-13T07:15:36;20.60;71.70
65046;DHT22;54657;52.022;5.534;2022-09-13T07:18:02;20.70;71.60
65046;DHT22;54657;52.022;5.534;2022-09-13T07:20:27;20.80;71.70
65046;DHT22;54657;52.022;5.534;2022-09-13T07:22:53;20.80;71.60
65046;DHT22;54657;52.022;5.534;2022-09-13T07:25:18;20.90;71.70
65046;DHT22;54657;52.022;5.534;2022-09-13T07:27:44;20.90;71.60
65046;DHT22;54657;52.022;5.534;2022-09-13T07:30:09;21.00;71.50
65046;DHT22;54657;52.022;5.534;2022-09-13T07:32:35;21.10;71.50
65046;DHT22;54657;52.022;5.534;2022-09-13T07:35:00;21.20;71.50
65046;DHT22;54657;52.022;5.534;2022-09-13T07:37:26;21.20;71.50
65046;DHT22;54657;52.022;5.534;2022-09-13T07:39:52;21.30;71.50
65046;DHT22;54657;52.022;5.534;2022-09-13T07:42:17;21.30;71.60
65046;DHT22;54657;52.022;5.534;2022-09-13T07:44:43;21.30;71.70
65046;DHT22;54657;52.022;5.534;2022-09-13T07:47:08;21.30;71.90
65046;DHT22;54657;52.022;5.534;2022-09-13T07:49:34;21.30;72.10
65046;DHT22;54657;52.022;5.534;2022-09-13T07:51:59;21.20;72.00
65046;DHT22;54657;52.022;5.534;2022-09-13T07:54:25;21.20;72.30
65046;DHT22;54657;52.022;5.534;2022-09-13T07:56:51;21.30;72.30
65046;DHT22;54657;52.022;5.534;2022-09-13T07:59:17;21.30;72.40
65046;DHT22;54657;52.022;5.534;2022-09-13T08:01:46;21.30;72.60
65046;DHT22;54657;52.022;5.534;2022-09-13T08:04:14;21.30;72.70
65046;DHT22;54657;52.022;5.534;2022-09-13T08:06:41;21.30;72.70
65046;DHT22;54657;52.022;5.534;2022-09-13T08:09:10;21.30;72.80
65046;DHT22;54657;52.022;5.534;2022-09-13T08:11:39;21.20;72.90
65046;DHT22;54657;52.022;5.534;2022-09-13T08:14:06;21.20;73.20
65046;DHT22;54657;52.022;5.534;2022-09-13T08:16:32;21.20;73.40
65046;DHT22;54657;52.022;5.534;2022-09-13T08:19:00;21.30;73.30
65046;DHT22;54657;52.022;5.534;2022-09-13T08:21:34;21.30;73.40
65046;DHT22;54657;52.022;5.534;2022-09-13T08:24:00;21.40;73.50
65046;DHT22;54657;52.022;5.534;2022-09-13T08:26:27;21.40;73.40
65046;DHT22;54657;52.022;5.534;2022-09-13T08:28:56;21.50;73.20
65046;DHT22;54657;52.022;5.534;2022-09-13T08:31:22;21.50;73.10
65046;DHT22;54657;52.022;5.534;2022-09-13T08:33:48;21.60;73.20
65046;DHT22;54657;52.022;5.534;2022-09-13T08:36:15;21.60;73.00
65046;DHT22;54657;52.022;5.534;2022-09-13T08:38:48;21.70;72.90
65046;DHT22;54657;52.022;5.534;2022-09-13T08:41:31;21.80;73.00
65046;DHT22;54657;52.022;5.534;2022-09-13T08:46:43;21.90;73.10
65046;DHT22;54657;52.022;5.534;2022-09-13T08:49:23;21.90;73.00
65046;DHT22;54657;52.022;5.534;2022-09-13T08:51:53;21.90;73.10
65046;DHT22;54657;52.022;5.534;2022-09-13T08:54:20;21.90;73.10
65046;DHT22;54657;52.022;5.534;2022-09-13T09:02:52;22.00;73.60
65046;DHT22;54657;52.022;5.534;2022-09-13T09:05:25;22.00;73.20
65046;DHT22;54657;52.022;5.534;2022-09-13T09:08:05;22.00;73.10
65046;DHT22;54657;52.022;5.534;2022-09-13T09:10:40;22.00;72.70
65046;DHT22;54657;52.022;5.534;2022-09-13T09:15:52;22.00;73.10
65046;DHT22;54657;52.022;5.534;2022-09-13T09:18:26;21.90;72.90
65046;DHT22;54657;52.022;5.534;2022-09-13T09:20:55;21.90;73.50
65046;DHT22;54657;52.022;5.534;2022-09-13T09:23:45;22.00;72.80
65046;DHT22;54657;52.022;5.534;2022-09-13T09:26:19;22.20;72.90
65046;DHT22;54657;52.022;5.534;2022-09-13T09:28:55;22.20;72.60
65046;DHT22;54657;52.022;5.534;2022-09-13T09:31:32;22.20;72.50
65046;DHT22;54657;52.022;5.534;2022-09-13T09:36:49;22.20;72.20
65046;DHT22;54657;52.022;5.534;2022-09-13T09:39:16;22.30;72.00
65046;DHT22;54657;52.022;5.534;2022-09-13T09:41:43;22.30;71.70
65046;DHT22;54657;52.022;5.534;2022-09-13T09:44:23;22.30;71.70
65046;DHT22;54657;52.022;5.534;2022-09-13T09:47:00;22.40;71.80
65046;DHT22;54657;52.022;5.534;2022-09-13T09:49:34;22.40;71.50
65046;DHT22;54657;52.022;5.534;2022-09-13T09:52:29;22.50;71.20
65046;DHT22;54657;52.022;5.534;2022-09-13T09:55:10;22.50;71.30
65046;DHT22;54657;52.022;5.534;2022-09-13T10:00:27;22.70;70.80
65046;DHT22;54657;52.022;5.534;2022-09-13T10:02:57;22.70;70.90
65046;DHT22;54657;52.022;5.534;2022-09-13T10:05:25;22.70;70.70
65046;DHT22;54657;52.022;5.534;2022-09-13T10:08:30;22.80;70.80
65046;DHT22;54657;52.022;5.534;2022-09-13T10:10:58;22.90;69.90
65046;DHT22;54657;52.022;5.534;2022-09-13T10:13:25;22.80;70.50
65046;DHT22;54657;52.022;5.534;2022-09-13T10:18:23;22.70;70.70
65046;DHT22;54657;52.022;5.534;2022-09-13T10:21:06;22.70;70.90
65046;DHT22;54657;52.022;5.534;2022-09-13T10:23:36;22.60;70.80
65046;DHT22;54657;52.022;5.534;2022-09-13T10:26:05;22.60;71.10
65046;DHT22;54657;52.022;5.534;2022-09-13T10:28:34;22.50;71.20
65046;DHT22;54657;52.022;5.534;2022-09-13T10:31:08;22.50;71.40
65046;DHT22;54657;52.022;5.534;2022-09-13T10:33:35;22.40;71.20
65046;DHT22;54657;52.022;5.534;2022-09-13T10:36:06;22.30;71.40
65046;DHT22;54657;52.022;5.534;2022-09-13T10:38:36;22.30;71.30
65046;DHT22;54657;52.022;5.534;2022-09-13T10:41:08;22.40;71.30
65046;DHT22;54657;52.022;5.534;2022-09-13T10:43:35;22.50;70.90
65046;DHT22;54657;52.022;5.534;2022-09-13T10:46:04;22.50;70.70
65046;DHT22;54657;52.022;5.534;2022-09-13T10:48:46;22.70;70.50
65046;DHT22;54657;52.022;5.534;2022-09-13T10:51:27;22.70;70.10
65046;DHT22;54657;52.022;5.534;2022-09-13T10:54:16;22.80;69.90
65046;DHT22;54657;52.022;5.534;2022-09-13T10:56:42;22.80;69.70
65046;DHT22;54657;52.022;5.534;2022-09-13T10:59:28;22.80;70.10
65046;DHT22;54657;52.022;5.534;2022-09-13T11:08:12;22.80;70.00
65046;DHT22;54657;52.022;5.534;2022-09-13T11:10:44;22.90;68.50
65046;DHT22;54657;52.022;5.534;2022-09-13T11:13:27;22.90;69.40
65046;DHT22;54657;52.022;5.534;2022-09-13T11:27:00;22.80;69.40
65046;DHT22;54657;52.022;5.534;2022-09-13T11:29:53;22.90;67.90
65046;DHT22;54657;52.022;5.534;2022-09-13T11:38:46;22.90;66.80
65046;DHT22;54657;52.022;5.534;2022-09-13T11:41:30;22.80;68.80
65046;DHT22;54657;52.022;5.534;2022-09-13T11:55:24;23.20;67.80
65046;DHT22;54657;52.022;5.534;2022-09-13T11:57:56;23.10;67.60
65046;DHT22;54657;52.022;5.534;2022-09-13T12:00:26;23.10;67.80
65046;DHT22;54657;52.022;5.534;2022-09-13T12:05:56;22.90;67.70
65046;DHT22;54657;52.022;5.534;2022-09-13T12:08:46;23.00;67.40
65046;DHT22;54657;52.022;5.534;2022-09-13T12:11:23;23.10;66.80
65046;DHT22;54657;52.022;5.534;2022-09-13T12:14:02;23.10;66.70
65046;DHT22;54657;52.022;5.534;2022-09-13T12:16:32;23.10;67.30
65046;DHT22;54657;52.022;5.534;2022-09-13T12:19:03;23.10;67.20
65046;DHT22;54657;52.022;5.534;2022-09-13T12:21:36;23.10;67.00
65046;DHT22;54657;52.022;5.534;2022-09-13T12:24:17;23.10;67.10
65046;DHT22;54657;52.022;5.534;2022-09-13T12:32:28;23.10;66.70
65046;DHT22;54657;52.022;5.534;2022-09-13T12:35:09;23.00;67.00
65046;DHT22;54657;52.022;5.534;2022-09-13T12:57:40;23.60;64.40
65046;DHT22;54657;52.022;5.534;2022-09-13T13:00:12;23.60;65.00
65046;DHT22;54657;52.022;5.534;2022-09-13T13:03:29;23.70;65.20
65046;DHT22;54657;52.022;5.534;2022-09-13T13:05:38;23.80;65.10
65046;DHT22;54657;52.022;5.534;2022-09-13T13:10:42;23.80;64.20
65046;DHT22;54657;52.022;5.534;2022-09-13T13:13:22;23.70;64.60
65046;DHT22;54657;52.022;5.534;2022-09-13T13:23:20;23.60;64.30
65046;DHT22;54657;52.022;5.534;2022-09-13T13:36:26;23.50;62.80
65046;DHT22;54657;52.022;5.534;2022-09-13T13:39:02;23.40;64.10
65046;DHT22;54657;52.022;5.534;2022-09-13T13:44:01;23.40;63.50
65046;DHT22;54657;52.022;5.534;2022-09-13T13:57:35;23.60;63.10
65046;DHT22;54657;52.022;5.534;2022-09-13T14:00:19;23.70;61.20
65046;DHT22;54657;52.022;5.534;2022-09-13T14:13:39;23.70;60.60
65046;DHT22;54657;52.022;5.534;2022-09-13T14:21:26;23.50;61.50
65046;DHT22;54657;52.022;5.534;2022-09-13T14:26:43;23.50;59.70
65046;DHT22;54657;52.022;5.534;2022-09-13T14:29:11;23.30;62.30
65046;DHT22;54657;52.022;5.534;2022-09-13T14:31:37;23.40;62.70
65046;DHT22;54657;52.022;5.534;2022-09-13T14:34:03;23.20;62.60
65046;DHT22;54657;52.022;5.534;2022-09-13T14:36:29;23.20;62.50
65046;DHT22;54657;52.022;5.534;2022-09-13T14:38:57;23.20;62.50
65046;DHT22;54657;52.022;5.534;2022-09-13T14:41:32;23.20;62.20
65046;DHT22;54657;52.022;5.534;2022-09-13T14:44:20;23.20;61.80
65046;DHT22;54657;52.022;5.534;2022-09-13T14:46:54;23.10;60.70
65046;DHT22;54657;52.022;5.534;2022-09-13T14:49:28;23.10;62.20
65046;DHT22;54657;52.022;5.534;2022-09-13T14:51:57;23.00;62.20
65046;DHT22;54657;52.022;5.534;2022-09-13T14:54:42;23.00;62.20
65046;DHT22;54657;52.022;5.534;2022-09-13T14:57:26;22.90;60.20
65046;DHT22;54657;52.022;5.534;2022-09-13T14:59:57;22.90;61.70
65046;DHT22;54657;52.022;5.534;2022-09-13T15:02:30;22.90;61.90
65046;DHT22;54657;52.022;5.534;2022-09-13T15:05:00;23.00;60.80
65046;DHT22;54657;52.022;5.534;2022-09-13T15:07:37;22.90;62.40
65046;DHT22;54657;52.022;5.534;2022-09-13T15:10:19;22.80;60.70
65046;DHT22;54657;52.022;5.534;2022-09-13T15:15:25;22.70;61.60
65046;DHT22;54657;52.022;5.534;2022-09-13T15:17:52;22.60;62.00
65046;DHT22;54657;52.022;5.534;2022-09-13T15:20:18;22.50;61.90
65046;DHT22;54657;52.022;5.534;2022-09-13T15:22:45;22.50;61.90
65046;DHT22;54657;52.022;5.534;2022-09-13T15:25:26;22.50;61.70
65046;DHT22;54657;52.022;5.534;2022-09-13T15:27:53;22.50;60.80
65046;DHT22;54657;52.022;5.534;2022-09-13T15:30:23;22.40;61.60
65046;DHT22;54657;52.022;5.534;2022-09-13T15:33:02;22.30;61.80
65046;DHT22;54657;52.022;5.534;2022-09-13T15:35:32;22.30;61.50
65046;DHT22;54657;52.022;5.534;2022-09-13T15:38:22;22.30;61.50
65046;DHT22;54657;52.022;5.534;2022-09-13T15:43:36;22.20;60.60
65046;DHT22;54657;52.022;5.534;2022-09-13T15:46:02;22.10;61.70
65046;DHT22;54657;52.022;5.534;2022-09-13T15:48:30;22.20;61.50
65046;DHT22;54657;52.022;5.534;2022-09-13T15:51:14;22.10;61.40
65046;DHT22;54657;52.022;5.534;2022-09-13T15:53:41;22.10;59.60
65046;DHT22;54657;52.022;5.534;2022-09-13T15:56:08;22.10;61.10
65046;DHT22;54657;52.022;5.534;2022-09-13T15:58:36;22.00;61.10
65046;DHT22;54657;52.022;5.534;2022-09-13T16:01:03;22.00;61.10
65046;DHT22;54657;52.022;5.534;2022-09-13T16:03:29;22.00;61.00
65046;DHT22;54657;52.022;5.534;2022-09-13T16:05:55;21.90;61.00
65046;DHT22;54657;52.022;5.534;2022-09-13T16:08:22;21.90;61.10
65046;DHT22;54657;52.022;5.534;2022-09-13T16:10:48;21.90;61.00
65046;DHT22;54657;52.022;5.534;2022-09-13T16:13:13;22.00;61.10
65046;DHT22;54657;52.022;5.534;2022-09-13T16:15:39;22.00;60.90
65046;DHT22;54657;52.022;5.534;2022-09-13T16:18:04;21.90;60.70
65046;DHT22;54657;52.022;5.534;2022-09-13T16:20:30;21.90;60.70
65046;DHT22;54657;52.022;5.534;2022-09-13T16:22:55;21.90;60.90
65046;DHT22;54657;52.022;5.534;2022-09-13T16:25:21;21.90;60.70
65046;DHT22;54657;52.022;5.534;2022-09-13T16:27:47;21.90;60.80
65046;DHT22;54657;52.022;5.534;2022-09-13T16:30:17;21.80;60.70
65046;DHT22;54657;52.022;5.534;2022-09-13T16:32:44;21.80;60.70
65046;DHT22;54657;52.022;5.534;2022-09-13T16:35:11;21.80;61.00
65046;DHT22;54657;52.022;5.534;2022-09-13T16:37:38;21.70;61.20
65046;DHT22;54657;52.022;5.534;2022-09-13T16:40:05;21.70;61.10
65046;DHT22;54657;52.022;5.534;2022-09-13T16:42:33;21.60;61.20
65046;DHT22;54657;52.022;5.534;2022-09-13T16:44:58;21.50;61.50
65046;DHT22;54657;52.022;5.534;2022-09-13T16:47:24;21.50;61.50
65046;DHT22;54657;52.022;5.534;2022-09-13T16:49:50;21.40;61.60
65046;DHT22;54657;52.022;5.534;2022-09-13T16:52:16;21.40;61.80
65046;DHT22;54657;52.022;5.534;2022-09-13T16:54:41;21.40;62.50
65046;DHT22;54657;52.022;5.534;2022-09-13T16:57:10;21.30;62.00
65046;DHT22;54657;52.022;5.534;2022-09-13T16:59:38;21.20;61.90
65046;DHT22;54657;52.022;5.534;2022-09-13T17:02:11;21.10;62.10
65046;DHT22;54657;52.022;5.534;2022-09-13T17:04:37;21.10;62.20
65046;DHT22;54657;52.022;5.534;2022-09-13T17:07:03;21.00;62.20
65046;DHT22;54657;52.022;5.534;2022-09-13T17:09:33;21.00;62.30
65046;DHT22;54657;52.022;5.534;2022-09-13T17:11:59;20.90;62.30
65046;DHT22;54657;52.022;5.534;2022-09-13T17:14:24;20.90;62.40
65046;DHT22;54657;52.022;5.534;2022-09-13T17:16:52;20.90;62.40
65046;DHT22;54657;52.022;5.534;2022-09-13T17:19:21;20.90;62.40
65046;DHT22;54657;52.022;5.534;2022-09-13T17:21:47;20.90;62.50
65046;DHT22;54657;52.022;5.534;2022-09-13T17:24:13;20.80;62.40
65046;DHT22;54657;52.022;5.534;2022-09-13T17:26:40;20.60;62.60
65046;DHT22;54657;52.022;5.534;2022-09-13T17:29:06;20.60;62.60
65046;DHT22;54657;52.022;5.534;2022-09-13T17:31:32;20.50;62.80
65046;DHT22;54657;52.022;5.534;2022-09-13T17:33:57;20.50;62.80
65046;DHT22;54657;52.022;5.534;2022-09-13T17:36:23;20.40;62.90
65046;DHT22;54657;52.022;5.534;2022-09-13T17:38:54;20.30;63.00
65046;DHT22;54657;52.022;5.534;2022-09-13T17:41:20;20.30;63.00
65046;DHT22;54657;52.022;5.534;2022-09-13T17:43:45;20.20;63.00
65046;DHT22;54657;52.022;5.534;2022-09-13T17:46:17;20.20;63.20
65046;DHT22;54657;52.022;5.534;2022-09-13T17:48:45;20.10;63.10
65046;DHT22;54657;52.022;5.534;2022-09-13T17:51:13;20.10;63.10
65046;DHT22;54657;52.022;5.534;2022-09-13T17:53:50;20.10;63.10
65046;DHT22;54657;52.022;5.534;2022-09-13T17:56:17;20.00;63.00
65046;DHT22;54657;52.022;5.534;2022-09-13T17:58:43;20.00;63.20
65046;DHT22;54657;52.022;5.534;2022-09-13T18:01:09;20.00;63.20
65046;DHT22;54657;52.022;5.534;2022-09-13T18:03:35;19.90;63.10
65046;DHT22;54657;52.022;5.534;2022-09-13T18:06:03;19.90;63.20
65046;DHT22;54657;52.022;5.534;2022-09-13T18:08:31;19.90;63.20
65046;DHT22;54657;52.022;5.534;2022-09-13T18:11:09;19.80;63.20
65046;DHT22;54657;52.022;5.534;2022-09-13T18:13:36;19.90;63.20
65046;DHT22;54657;52.022;5.534;2022-09-13T18:16:11;19.80;63.20
65046;DHT22;54657;52.022;5.534;2022-09-13T18:18:37;19.80;63.40
65046;DHT22;54657;52.022;5.534;2022-09-13T18:21:05;19.70;63.40
65046;DHT22;54657;52.022;5.534;2022-09-13T18:23:32;19.70;63.50
65046;DHT22;54657;52.022;5.534;2022-09-13T18:26:04;19.70;63.40
65046;DHT22;54657;52.022;5.534;2022-09-13T18:28:30;19.70;63.40
65046;DHT22;54657;52.022;5.534;2022-09-13T18:30:58;19.70;63.50
65046;DHT22;54657;52.022;5.534;2022-09-13T18:33:24;19.60;63.60
65046;DHT22;54657;52.022;5.534;2022-09-13T18:36:07;19.60;63.70
65046;DHT22;54657;52.022;5.534;2022-09-13T18:38:41;19.50;63.80
65046;DHT22;54657;52.022;5.534;2022-09-13T18:41:08;19.40;63.90
65046;DHT22;54657;52.022;5.534;2022-09-13T18:43:35;19.50;63.90
65046;DHT22;54657;52.022;5.534;2022-09-13T18:46:03;19.50;63.80
65046;DHT22;54657;52.022;5.534;2022-09-13T18:48:31;19.40;63.80
65046;DHT22;54657;52.022;5.534;2022-09-13T18:50:58;19.30;63.80
65046;DHT22;54657;52.022;5.534;2022-09-13T18:53:24;19.30;63.90
65046;DHT22;54657;52.022;5.534;2022-09-13T18:55:50;19.30;64.00